Time;durP1;ratioP1;P1;durP2;ratioP2;P2;SDS_P1;SDS_P2;PMS_P1;PMS_P2;Temp;Humidity;BMP_temperature;BMP_pressure;BME280_temperature;BME280_humidity;BME280_pressure;Samples;Min_cycle;Max_cycle;Signal;HPM_P1;HPM_P2
2022/01/12 00:01:56;;;;;;;;;;;19.60;57.40;;;;;;5037353;28;1441;-69
2022/01/12 00:04:22;;;;;;;;;;;19.60;57.40;;;;;;5031760;28;1735;-69
2022/01/12 00:06:47;;;;;;;;;;;19.60;57.40;;;;;;5032524;28;1339;-68
2022/01/12 00:09:12;;;;;;;;;;;19.60;57.40;;;;;;5027544;28;1115;-69
2022/01/12 00:11:38;;;;;;;;;;;19.60;57.40;;;;;;5022305;28;1894;-70
2022/01/12 00:14:04;;;;;;;;;;;19.60;57.40;;;;;;5025150;28;1044;-70
2022/01/12 00:16:29;;;;;;;;;;;19.60;57.40;;;;;;5047711;28;1373;-70
2022/01/12 00:18:55;;;;;;;;;;;19.60;57.50;;;;;;5030667;28;1977;-69
2022/01/12 00:21:20;;;;;;;;;;;19.60;57.50;;;;;;5032323;28;1052;-70
2022/01/12 00:23:46;;;;;;;;;;;19.60;57.50;;;;;;5047435;28;1392;-70
2022/01/12 00:26:24;;;;;;;;;;;19.50;57.50;;;;;;5047695;28;1317;-70
2022/01/12 00:34:18;;;;;;;;;;;19.50;57.50;;;;;;5030577;28;929;-70
2022/01/12 00:36:43;;;;;;;;;;;19.50;57.50;;;;;;5032229;28;1298;-70
2022/01/12 00:39:09;;;;;;;;;;;19.50;57.60;;;;;;5032700;28;1914;-69
2022/01/12 00:41:37;;;;;;;;;;;19.50;57.60;;;;;;5032016;28;1056;-70
2022/01/12 00:44:06;;;;;;;;;;;19.50;57.60;;;;;;5032175;28;1415;-70
2022/01/12 00:46:32;;;;;;;;;;;19.50;57.60;;;;;;5032810;28;1359;-70
2022/01/12 00:48:57;;;;;;;;;;;19.50;57.60;;;;;;5032378;28;1083;-70
2022/01/12 00:51:26;;;;;;;;;;;19.50;57.60;;;;;;5047499;28;1385;-70
2022/01/12 00:53:51;;;;;;;;;;;19.50;57.60;;;;;;5031955;28;1139;-70
2022/01/12 00:56:17;;;;;;;;;;;19.50;57.70;;;;;;5032623;28;1325;-70
2022/01/12 00:58:42;;;;;;;;;;;19.50;57.70;;;;;;5032073;28;1898;-70
2022/01/12 01:01:08;;;;;;;;;;;19.50;57.70;;;;;;5034022;28;1150;-70
2022/01/12 01:03:34;;;;;;;;;;;19.50;57.70;;;;;;5042615;28;1270;-70
2022/01/12 01:05:59;;;;;;;;;;;19.50;57.70;;;;;;5047163;28;1425;-70
2022/01/12 01:08:25;;;;;;;;;;;19.40;57.70;;;;;;5031866;28;1355;-71
2022/01/12 01:10:52;;;;;;;;;;;19.50;57.70;;;;;;5047659;28;1314;-70
2022/01/12 01:13:20;;;;;;;;;;;19.40;57.70;;;;;;5031204;28;1389;-70
2022/01/12 01:26:32;;;;;;;;;;;19.40;57.80;;;;;;5013253;28;1385;-70
2022/01/12 01:28:57;;;;;;;;;;;19.40;57.80;;;;;;5030981;28;1187;-70
2022/01/12 01:31:31;;;;;;;;;;;19.40;57.80;;;;;;5031896;28;1305;-70
2022/01/12 01:33:56;;;;;;;;;;;19.40;57.80;;;;;;5031482;28;1437;-70
2022/01/12 01:36:26;;;;;;;;;;;19.40;57.90;;;;;;5032026;28;1372;-70
2022/01/12 01:38:52;;;;;;;;;;;19.40;57.90;;;;;;5031515;28;1898;-70
2022/01/12 01:41:17;;;;;;;;;;;19.40;57.80;;;;;;5031393;28;1407;-70
2022/01/12 01:44:07;;;;;;;;;;;19.40;57.90;;;;;;5031218;28;1186;-70
2022/01/12 01:54:45;;;;;;;;;;;19.40;57.90;;;;;;5034859;28;1400;-70
2022/01/12 01:57:10;;;;;;;;;;;19.30;57.90;;;;;;5033919;28;1296;-70
2022/01/12 01:59:36;;;;;;;;;;;19.40;57.90;;;;;;5050747;28;1890;-70
2022/01/12 02:02:01;;;;;;;;;;;19.40;57.90;;;;;;5050123;28;1531;-69
2022/01/12 02:04:26;;;;;;;;;;;19.30;57.90;;;;;;5034318;28;1068;-69
2022/01/12 02:06:54;;;;;;;;;;;19.40;58.00;;;;;;5035445;28;1393;-70
2022/01/12 02:09:19;;;;;;;;;;;19.40;58.00;;;;;;5034633;28;1310;-70
2022/01/12 02:11:49;;;;;;;;;;;19.40;58.00;;;;;;5050490;28;1345;-70
2022/01/12 02:14:14;;;;;;;;;;;19.40;58.00;;;;;;5050252;28;1393;-70
2022/01/12 02:16:51;;;;;;;;;;;19.40;58.00;;;;;;5034467;28;1359;-70
2022/01/12 02:19:41;;;;;;;;;;;19.30;58.00;;;;;;5034544;28;1902;-69
2022/01/12 02:35:56;;;;;;;;;;;19.40;57.90;;;;;;5034208;28;936;-70
2022/01/12 02:40:50;;;;;;;;;;;19.40;57.90;;;;;;5034745;28;1388;-70
2022/01/12 02:43:26;;;;;;;;;;;19.40;57.80;;;;;;5033740;28;1102;-70
2022/01/12 02:51:33;;;;;;;;;;;19.40;57.70;;;;;;5025854;28;1147;-70
2022/01/12 02:53:59;;;;;;;;;;;19.40;57.70;;;;;;5048325;28;1088;-70
2022/01/12 02:56:32;;;;;;;;;;;19.40;57.70;;;;;;5048988;28;1405;-70
2022/01/12 02:58:59;;;;;;;;;;;19.40;58.20;;;;;;5033829;28;1914;-69
2022/01/12 03:03:51;;;;;;;;;;;19.50;57.70;;;;;;5040838;28;1074;-70
2022/01/12 03:06:20;;;;;;;;;;;19.50;57.70;;;;;;5033831;28;1258;-69
2022/01/12 03:08:46;;;;;;;;;;;19.40;57.60;;;;;;5033798;28;1087;-70
2022/01/12 03:11:12;;;;;;;;;;;19.40;57.60;;;;;;5049257;28;1307;-69
2022/01/12 03:13:38;;;;;;;;;;;19.40;57.60;;;;;;5032175;28;1648;-70
2022/01/12 03:16:11;;;;;;;;;;;19.40;57.60;;;;;;5048985;28;1326;-69
2022/01/12 03:18:37;;;;;;;;;;;19.40;57.60;;;;;;5033687;28;1914;-70
2022/01/12 03:21:02;;;;;;;;;;;19.40;57.60;;;;;;5033350;28;1245;-70
2022/01/12 03:23:28;;;;;;;;;;;19.40;57.60;;;;;;5033107;28;1328;-70
2022/01/12 03:25:54;;;;;;;;;;;19.40;57.60;;;;;;5033330;28;1059;-70
2022/01/12 03:28:19;;;;;;;;;;;19.40;57.60;;;;;;5033281;28;1331;-70
2022/01/12 03:30:54;;;;;;;;;;;19.40;57.70;;;;;;5033346;28;1328;-70
2022/01/12 03:33:38;;;;;;;;;;;19.40;57.70;;;;;;5032993;28;1032;-70
2022/01/12 03:38:47;;;;;;;;;;;19.40;57.70;;;;;;5046342;28;1910;-70
2022/01/12 03:41:13;;;;;;;;;;;19.40;57.70;;;;;;5033439;28;1345;-70
2022/01/12 03:43:38;;;;;;;;;;;19.40;57.70;;;;;;5048103;28;1080;-70
2022/01/12 03:46:04;;;;;;;;;;;19.40;57.70;;;;;;5032971;28;1274;-70
2022/01/12 03:48:29;;;;;;;;;;;19.40;57.70;;;;;;5032576;28;1326;-70
2022/01/12 03:50:56;;;;;;;;;;;19.40;57.80;;;;;;5033260;28;1254;-70
2022/01/12 03:53:22;;;;;;;;;;;19.30;57.70;;;;;;5032715;28;1609;-70
2022/01/12 03:55:47;;;;;;;;;;;19.40;57.80;;;;;;5033050;28;1146;-70
2022/01/12 03:58:13;;;;;;;;;;;19.30;57.80;;;;;;5031751;28;1902;-70
2022/01/12 04:00:38;;;;;;;;;;;19.40;57.80;;;;;;5033105;28;1151;-70
2022/01/12 04:03:06;;;;;;;;;;;19.30;57.80;;;;;;5045405;28;1256;-70
2022/01/12 04:08:21;;;;;;;;;;;19.30;57.90;;;;;;5033070;28;1373;-69
2022/01/12 04:10:47;;;;;;;;;;;19.30;57.90;;;;;;5045288;28;1221;-70
2022/01/12 04:13:14;;;;;;;;;;;19.30;57.90;;;;;;5047349;28;1306;-70
2022/01/12 04:15:40;;;;;;;;;;;19.30;58.50;;;;;;5048001;28;1187;-70
2022/01/12 04:18:05;;;;;;;;;;;19.30;57.90;;;;;;5047797;28;1209;-70
2022/01/12 04:20:30;;;;;;;;;;;19.30;57.90;;;;;;5032545;28;1898;-70
2022/01/12 04:25:40;;;;;;;;;;;19.30;57.90;;;;;;5032109;28;1277;-70
2022/01/12 04:28:05;;;;;;;;;;;19.30;57.90;;;;;;5032295;28;1376;-70
2022/01/12 04:30:31;;;;;;;;;;;19.30;57.90;;;;;;5033131;28;1273;-69
2022/01/12 04:32:56;;;;;;;;;;;19.30;57.90;;;;;;5032256;28;1071;-70
2022/01/12 04:35:25;;;;;;;;;;;19.30;57.90;;;;;;5032195;28;1295;-70
2022/01/12 04:37:51;;;;;;;;;;;19.30;58.00;;;;;;5032063;28;1340;-71
2022/01/12 04:40:16;;;;;;;;;;;19.30;57.90;;;;;;5032211;28;1961;-69
2022/01/12 04:42:42;;;;;;;;;;;19.30;58.00;;;;;;5032630;28;1365;-70
2022/01/12 04:50:43;;;;;;;;;;;19.30;58.00;;;;;;5032363;28;1262;-70
2022/01/12 04:53:09;;;;;;;;;;;19.30;58.00;;;;;;5045193;28;1063;-70
2022/01/12 04:55:35;;;;;;;;;;;19.30;58.00;;;;;;5048088;28;1357;-69
2022/01/12 04:58:00;;;;;;;;;;;19.30;58.00;;;;;;5032654;28;1306;-70
2022/01/12 05:00:26;;;;;;;;;;;19.30;58.00;;;;;;5032266;28;1891;-70
2022/01/12 05:08:37;;;;;;;;;;;19.20;57.90;;;;;;5032251;28;1251;-70
2022/01/12 05:13:47;;;;;;;;;;;19.30;57.90;;;;;;5044110;28;1063;-70
2022/01/12 05:16:12;;;;;;;;;;;19.30;57.90;;;;;;5032053;28;1338;-69
2022/01/12 05:18:38;;;;;;;;;;;19.40;57.90;;;;;;5047340;28;1968;-70
2022/01/12 05:21:04;;;;;;;;;;;19.40;57.80;;;;;;5031497;28;1285;-70
2022/01/12 05:23:29;;;;;;;;;;;19.40;57.70;;;;;;5033282;28;1396;-70
2022/01/12 05:25:55;;;;;;;;;;;19.40;58.10;;;;;;5035857;28;1386;-70
2022/01/12 05:28:20;;;;;;;;;;;19.50;57.50;;;;;;5035845;28;1340;-70
2022/01/12 05:30:46;;;;;;;;;;;19.50;57.40;;;;;;5050902;28;1397;-70
2022/01/12 05:33:11;;;;;;;;;;;19.60;57.30;;;;;;5035322;28;1397;-69
2022/01/12 05:35:36;;;;;;;;;;;19.60;57.20;;;;;;5035478;28;1124;-70
2022/01/12 05:38:02;;;;;;;;;;;19.60;57.10;;;;;;5035670;28;1315;-70
2022/01/12 05:40:28;;;;;;;;;;;19.70;57.10;;;;;;5035162;28;1907;-70
2022/01/12 05:42:54;;;;;;;;;;;19.70;56.90;;;;;;5050281;28;1319;-70
2022/01/12 05:45:21;;;;;;;;;;;19.70;56.80;;;;;;5035770;28;1431;-70
2022/01/12 05:50:12;;;;;;;;;;;19.80;56.70;;;;;;5035728;28;1314;-70
2022/01/12 05:52:37;;;;;;;;;;;19.80;56.70;;;;;;5033956;28;1312;-70
2022/01/12 05:55:03;;;;;;;;;;;19.80;56.60;;;;;;5034627;28;1099;-70
2022/01/12 05:57:30;;;;;;;;;;;19.80;56.60;;;;;;5035047;28;1382;-70
2022/01/12 05:59:58;;;;;;;;;;;19.80;56.50;;;;;;5050287;28;1894;-69
2022/01/12 06:02:24;;;;;;;;;;;19.80;56.50;;;;;;5047861;28;1299;-69
2022/01/12 06:04:49;;;;;;;;;;;19.80;56.50;;;;;;5035233;28;1345;-69
2022/01/12 06:07:15;;;;;;;;;;;19.80;57.00;;;;;;5035483;28;1509;-70
2022/01/12 06:09:40;;;;;;;;;;;19.90;56.50;;;;;;5034965;28;1304;-70
2022/01/12 06:12:06;;;;;;;;;;;19.90;56.40;;;;;;5034932;28;1076;-70
2022/01/12 06:14:31;;;;;;;;;;;19.90;56.40;;;;;;5035082;28;1090;-69
2022/01/12 06:16:56;;;;;;;;;;;19.90;56.40;;;;;;5034842;28;1383;-70
2022/01/12 06:19:22;;;;;;;;;;;19.90;56.40;;;;;;5035020;28;1965;-70
2022/01/12 06:21:47;;;;;;;;;;;19.90;56.40;;;;;;5034454;28;1075;-70
2022/01/12 06:24:13;;;;;;;;;;;19.90;56.40;;;;;;5034672;28;1167;-70
2022/01/12 06:26:38;;;;;;;;;;;19.90;56.40;;;;;;5034355;28;1365;-70
2022/01/12 06:29:23;;;;;;;;;;;19.90;56.40;;;;;;5034989;28;1384;-69
2022/01/12 06:31:50;;;;;;;;;;;19.90;56.40;;;;;;5047883;28;1075;-69
2022/01/12 06:34:15;;;;;;;;;;;19.90;56.40;;;;;;5033492;28;1079;-70
2022/01/12 06:36:41;;;;;;;;;;;19.90;56.40;;;;;;5049711;28;1390;-69
2022/01/12 06:39:07;;;;;;;;;;;19.90;56.40;;;;;;5049380;28;1910;-70
2022/01/12 06:41:33;;;;;;;;;;;19.90;56.40;;;;;;5034885;28;1276;-69
2022/01/12 06:43:58;;;;;;;;;;;19.90;56.40;;;;;;5033873;28;1040;-70
2022/01/12 06:46:28;;;;;;;;;;;19.90;56.40;;;;;;5034048;28;1337;-70
2022/01/12 06:48:53;;;;;;;;;;;19.90;56.40;;;;;;5034366;28;1071;-69
2022/01/12 06:51:18;;;;;;;;;;;19.90;56.40;;;;;;5034465;28;1401;-70
2022/01/12 06:53:44;;;;;;;;;;;19.90;56.40;;;;;;5033194;28;1299;-70
2022/01/12 06:56:09;;;;;;;;;;;19.90;56.40;;;;;;5034160;28;1282;-69
2022/01/12 06:58:35;;;;;;;;;;;19.90;56.40;;;;;;5033558;28;1945;-67
2022/01/12 07:01:00;;;;;;;;;;;19.90;55.80;;;;;;5035260;28;1056;-69
2022/01/12 07:03:26;;;;;;;;;;;19.90;52.10;;;;;;5044558;28;1362;-69
2022/01/12 07:05:51;;;;;;;;;;;19.80;52.30;;;;;;5034214;28;1291;-69
2022/01/12 07:08:17;;;;;;;;;;;19.80;52.50;;;;;;5033968;28;1223;-70
2022/01/12 07:10:42;;;;;;;;;;;19.80;52.50;;;;;;5033370;28;1716;-70
2022/01/12 07:13:10;;;;;;;;;;;19.80;52.50;;;;;;5048837;28;1052;-69
2022/01/12 07:15:37;;;;;;;;;;;19.80;52.70;;;;;;5033873;28;1421;-69
2022/01/12 07:18:03;;;;;;;;;;;19.80;52.90;;;;;;5029672;28;1729;-70
2022/01/12 07:20:28;;;;;;;;;;;19.80;53.20;;;;;;5028956;28;1971;-70
2022/01/12 07:22:54;;;;;;;;;;;19.80;53.40;;;;;;5028887;28;1138;-72
2022/01/12 07:25:19;;;;;;;;;;;19.80;53.60;;;;;;5026869;28;1400;-71
2022/01/12 07:27:44;;;;;;;;;;;19.80;53.80;;;;;;5032612;28;1245;-71
2022/01/12 07:30:10;;;;;;;;;;;19.80;54.50;;;;;;5032977;28;1325;-71
2022/01/12 07:32:36;;;;;;;;;;;19.90;53.90;;;;;;5033568;28;1426;-71
2022/01/12 07:35:01;;;;;;;;;;;19.90;54.00;;;;;;5032410;28;1318;-71
2022/01/12 07:37:27;;;;;;;;;;;19.90;54.10;;;;;;5032188;28;1240;-70
2022/01/12 07:39:52;;;;;;;;;;;19.90;54.10;;;;;;5025555;28;1914;-71
2022/01/12 07:42:18;;;;;;;;;;;19.90;54.10;;;;;;5025723;28;1344;-68
2022/01/12 07:44:44;;;;;;;;;;;20.00;54.20;;;;;;5022883;28;1259;-69
2022/01/12 07:47:09;;;;;;;;;;;20.00;54.60;;;;;;5025496;28;1318;-68
2022/01/12 07:52:10;;;;;;;;;;;20.00;54.90;;;;;;5233737;22;1957;-70
2022/01/12 07:54:36;;;;;;;;;;;20.10;55.20;;;;;;5029813;28;1703;-71
2022/01/12 07:57:01;;;;;;;;;;;20.10;55.30;;;;;;5031864;28;1592;-71
2022/01/12 07:59:27;;;;;;;;;;;20.10;55.40;;;;;;5044839;28;1984;-71
2022/01/12 08:01:52;;;;;;;;;;;20.20;55.50;;;;;;5040137;28;1931;-72
2022/01/12 08:04:18;;;;;;;;;;;20.20;55.50;;;;;;5016217;28;1638;-70
2022/01/12 08:06:43;;;;;;;;;;;20.30;55.50;;;;;;5027224;22;3705;-67
2022/01/12 08:09:09;;;;;;;;;;;20.30;55.60;;;;;;5069096;28;1618;-68
2022/01/12 08:11:34;;;;;;;;;;;20.30;55.60;;;;;;5077749;28;1207;-69
2022/01/12 08:14:00;;;;;;;;;;;20.30;55.60;;;;;;5044432;28;1394;-70
2022/01/12 08:16:25;;;;;;;;;;;20.30;55.50;;;;;;5065342;28;1226;-70
2022/01/12 08:18:50;;;;;;;;;;;20.30;55.70;;;;;;5047306;28;1911;-70
2022/01/12 08:21:16;;;;;;;;;;;20.30;55.90;;;;;;5050091;28;2191;-69
2022/01/12 08:23:41;;;;;;;;;;;20.40;56.10;;;;;;5046249;28;1592;-68
2022/01/12 08:26:07;;;;;;;;;;;20.40;55.90;;;;;;5047603;28;1578;-68
2022/01/12 08:28:35;;;;;;;;;;;20.50;55.80;;;;;;5037810;28;1380;-68
2022/01/12 08:31:00;;;;;;;;;;;20.60;55.70;;;;;;5023035;28;1529;-68
2022/01/12 08:33:28;;;;;;;;;;;20.70;55.50;;;;;;5044650;28;1452;-68
2022/01/12 08:36:30;;;;;;;;;;;20.80;55.30;;;;;;5031666;28;1599;-69
2022/01/12 08:38:52;;;;;;;;;;;20.90;55.10;;;;;;5042064;28;1949;-70
2022/01/12 08:41:17;;;;;;;;;;;21.10;54.90;;;;;;5025133;28;1696;-70
2022/01/12 08:43:43;;;;;;;;;;;21.20;54.70;;;;;;5031907;28;1527;-70
2022/01/12 08:46:09;;;;;;;;;;;21.30;54.50;;;;;;5031987;28;1253;-70
2022/01/12 08:48:34;;;;;;;;;;;21.40;54.90;;;;;;5031514;28;1361;-70
2022/01/12 08:51:01;;;;;;;;;;;21.50;54.10;;;;;;5029428;28;1390;-70
2022/01/12 08:53:26;;;;;;;;;;;21.50;54.00;;;;;;5031189;28;1714;-70
2022/01/12 08:55:52;;;;;;;;;;;21.60;53.90;;;;;;5031622;28;1682;-70
2022/01/12 08:58:17;;;;;;;;;;;21.70;53.90;;;;;;5034582;28;1673;-70
2022/01/12 09:00:43;;;;;;;;;;;21.70;53.80;;;;;;5033113;28;1957;-70
2022/01/12 09:03:08;;;;;;;;;;;21.70;53.80;;;;;;5041330;28;1484;-70
2022/01/12 09:05:34;;;;;;;;;;;21.70;53.80;;;;;;5054382;28;1778;-71
2022/01/12 09:07:59;;;;;;;;;;;21.70;53.80;;;;;;5036572;28;1775;-70
2022/01/12 09:10:25;;;;;;;;;;;21.80;53.90;;;;;;5042470;28;1448;-70
2022/01/12 09:12:50;;;;;;;;;;;21.80;53.90;;;;;;5048434;28;1103;-70
2022/01/12 09:15:16;;;;;;;;;;;21.80;54.00;;;;;;5046186;28;1246;-70
2022/01/12 09:17:41;;;;;;;;;;;21.80;54.00;;;;;;5048707;28;1664;-70
2022/01/12 09:20:13;;;;;;;;;;;21.80;54.00;;;;;;5039355;28;2062;-70
2022/01/12 09:22:42;;;;;;;;;;;21.80;54.10;;;;;;5047932;28;1291;-70
2022/01/12 09:25:14;;;;;;;;;;;21.70;54.10;;;;;;5024605;28;1576;-70
2022/01/12 09:27:49;;;;;;;;;;;21.80;54.20;;;;;;5018314;28;1476;-70
2022/01/12 09:30:26;;;;;;;;;;;21.70;54.30;;;;;;5033250;28;1781;-70
2022/01/12 09:32:52;;;;;;;;;;;21.70;54.30;;;;;;5030629;28;1361;-69
2022/01/12 09:35:30;;;;;;;;;;;21.70;54.40;;;;;;5043598;28;1413;-69
2022/01/12 09:37:58;;;;;;;;;;;21.70;54.50;;;;;;5034922;28;1518;-69
2022/01/12 09:40:31;;;;;;;;;;;21.70;54.60;;;;;;5032922;28;1953;-69
2022/01/12 09:43:01;;;;;;;;;;;21.70;54.70;;;;;;5050995;28;1486;-70
2022/01/12 09:45:27;;;;;;;;;;;21.60;54.70;;;;;;5034912;28;1487;-70
2022/01/12 09:47:52;;;;;;;;;;;21.60;54.80;;;;;;5056830;28;2130;-70
2022/01/12 09:50:22;;;;;;;;;;;21.60;54.90;;;;;;5048955;28;1352;-71
2022/01/12 09:52:53;;;;;;;;;;;21.60;55.00;;;;;;5040889;28;1614;-71
2022/01/12 09:55:24;;;;;;;;;;;21.60;55.10;;;;;;5038013;28;1441;-70
2022/01/12 09:57:52;;;;;;;;;;;21.60;55.80;;;;;;5036471;28;1308;-70
2022/01/12 10:00:22;;;;;;;;;;;21.50;55.70;;;;;;5020642;28;1895;-69
2022/01/12 10:02:51;;;;;;;;;;;21.50;55.80;;;;;;5036460;28;1486;-70
2022/01/12 10:05:17;;;;;;;;;;;21.50;55.80;;;;;;5053741;28;1662;-70
2022/01/12 10:07:51;;;;;;;;;;;21.50;55.90;;;;;;5035964;28;1498;-70
2022/01/12 10:10:17;;;;;;;;;;;21.50;56.00;;;;;;5036486;28;1225;-70
2022/01/12 10:12:53;;;;;;;;;;;21.50;56.10;;;;;;5030535;28;1411;-70
2022/01/12 10:15:18;;;;;;;;;;;21.40;56.10;;;;;;5033944;28;1459;-70
2022/01/12 10:17:46;;;;;;;;;;;21.40;56.30;;;;;;5037124;28;1929;-72
2022/01/12 10:20:13;;;;;;;;;;;21.40;56.20;;;;;;5052334;28;1915;-73
2022/01/12 10:22:39;;;;;;;;;;;21.40;56.30;;;;;;5035957;28;1378;-73
2022/01/12 10:25:14;;;;;;;;;;;21.40;56.50;;;;;;5033447;28;1681;-69
2022/01/12 10:27:40;;;;;;;;;;;21.40;56.50;;;;;;5034147;28;1272;-70
2022/01/12 10:30:06;;;;;;;;;;;21.40;56.60;;;;;;5044759;28;1511;-70
2022/01/12 10:32:31;;;;;;;;;;;21.30;56.60;;;;;;5042043;28;898;-69
2022/01/12 10:34:59;;;;;;;;;;;21.30;56.70;;;;;;5040926;28;1339;-70
2022/01/12 10:37:27;;;;;;;;;;;21.30;56.70;;;;;;5035097;28;1233;-70
2022/01/12 10:39:54;;;;;;;;;;;21.30;56.80;;;;;;5034949;28;1898;-70
2022/01/12 10:42:24;;;;;;;;;;;21.30;56.80;;;;;;5034815;28;1658;-70
2022/01/12 10:44:50;;;;;;;;;;;21.30;56.90;;;;;;5047163;28;1241;-70
2022/01/12 10:47:17;;;;;;;;;;;21.30;56.90;;;;;;5033614;28;1252;-70
2022/01/12 10:49:54;;;;;;;;;;;21.20;56.90;;;;;;5036791;28;1698;-70
2022/01/12 10:52:23;;;;;;;;;;;21.20;57.00;;;;;;5034829;28;1623;-70
2022/01/12 10:54:49;;;;;;;;;;;21.20;57.00;;;;;;5049539;28;1483;-70
2022/01/12 10:57:18;;;;;;;;;;;21.20;57.10;;;;;;5036877;28;1461;-71
2022/01/12 10:59:46;;;;;;;;;;;21.20;57.10;;;;;;5038314;28;1910;-70
2022/01/12 11:02:11;;;;;;;;;;;21.20;57.10;;;;;;5016713;28;1222;-70
2022/01/12 11:04:40;;;;;;;;;;;21.20;57.00;;;;;;5033527;28;1376;-70
2022/01/12 11:07:06;;;;;;;;;;;21.10;57.10;;;;;;5033098;28;1389;-70
2022/01/12 11:09:31;;;;;;;;;;;21.10;57.10;;;;;;5042871;28;1371;-70
2022/01/12 11:11:57;;;;;;;;;;;21.10;57.10;;;;;;5042696;28;1668;-70
2022/01/12 11:14:22;;;;;;;;;;;21.20;57.30;;;;;;5051224;28;1261;-70
2022/01/12 11:16:48;;;;;;;;;;;21.10;57.50;;;;;;5052985;28;1614;-70
2022/01/12 11:19:13;;;;;;;;;;;21.10;57.50;;;;;;5036512;28;1976;-69
2022/01/12 11:21:44;;;;;;;;;;;21.10;57.50;;;;;;5052436;28;1659;-69
2022/01/12 11:24:13;;;;;;;;;;;21.10;57.50;;;;;;5034836;28;1569;-69
2022/01/12 11:26:45;;;;;;;;;;;21.10;57.60;;;;;;5045109;28;1288;-70
2022/01/12 11:29:11;;;;;;;;;;;21.10;57.70;;;;;;5039508;28;1468;-69
2022/01/12 11:31:38;;;;;;;;;;;21.10;57.80;;;;;;5040970;28;1651;-70
2022/01/12 11:34:03;;;;;;;;;;;21.10;57.80;;;;;;5032819;28;1396;-69
2022/01/12 11:36:35;;;;;;;;;;;21.10;58.40;;;;;;5034048;28;1643;-70
2022/01/12 11:39:03;;;;;;;;;;;21.10;57.80;;;;;;5040798;28;1902;-70
2022/01/12 11:41:29;;;;;;;;;;;21.10;57.70;;;;;;5052522;28;1579;-70
2022/01/12 11:43:55;;;;;;;;;;;21.10;57.70;;;;;;5053933;28;1370;-70
2022/01/12 11:46:21;;;;;;;;;;;21.10;57.70;;;;;;5052951;28;1423;-70
2022/01/12 11:48:53;;;;;;;;;;;21.10;57.70;;;;;;5039411;28;1580;-70
2022/01/12 11:51:19;;;;;;;;;;;21.10;57.70;;;;;;5038200;28;1404;-70
2022/01/12 11:53:48;;;;;;;;;;;21.10;57.90;;;;;;5032321;28;1291;-68
2022/01/12 11:56:18;;;;;;;;;;;21.10;57.70;;;;;;5033623;28;1059;-69
2022/01/12 11:58:53;;;;;;;;;;;21.10;57.70;;;;;;5032179;28;1910;-69
2022/01/12 12:01:19;;;;;;;;;;;21.10;57.80;;;;;;5046345;28;1071;-68
2022/01/12 12:04:01;;;;;;;;;;;21.10;57.80;;;;;;5042450;28;1064;-69
2022/01/12 12:06:26;;;;;;;;;;;21.10;57.90;;;;;;5033994;28;1335;-69
2022/01/12 12:08:56;;;;;;;;;;;21.10;57.80;;;;;;5051577;28;1308;-68
2022/01/12 12:11:21;;;;;;;;;;;21.10;57.80;;;;;;5032320;28;1392;-68
2022/01/12 12:13:46;;;;;;;;;;;21.10;57.80;;;;;;5030959;28;1343;-69
2022/01/12 12:16:12;;;;;;;;;;;21.10;57.80;;;;;;5032359;28;1471;-69
2022/01/12 12:18:37;;;;;;;;;;;21.10;57.80;;;;;;5031699;28;1922;-69
2022/01/12 12:21:03;;;;;;;;;;;21.10;57.80;;;;;;5031813;28;1072;-69
2022/01/12 12:23:30;;;;;;;;;;;21.10;57.80;;;;;;5046333;28;1051;-70
2022/01/12 12:25:56;;;;;;;;;;;21.10;57.80;;;;;;5039938;28;1064;-71
2022/01/12 12:28:21;;;;;;;;;;;21.10;57.80;;;;;;5032766;28;1387;-70
2022/01/12 12:30:46;;;;;;;;;;;21.10;57.80;;;;;;5043324;28;1278;-70
2022/01/12 12:33:12;;;;;;;;;;;21.10;57.80;;;;;;5037703;28;2062;-69
2022/01/12 12:35:38;;;;;;;;;;;21.10;57.80;;;;;;5040908;28;1226;-70
2022/01/12 12:38:04;;;;;;;;;;;21.20;57.80;;;;;;5048139;28;2157;-70
2022/01/12 12:40:33;;;;;;;;;;;21.10;57.90;;;;;;5043501;28;1961;-70
2022/01/12 12:43:05;;;;;;;;;;;21.10;57.90;;;;;;5038786;28;1727;-70
2022/01/12 12:45:54;;;;;;;;;;;21.10;57.90;;;;;;5045263;28;810;-70
2022/01/12 12:48:21;;;;;;;;;;;21.10;57.90;;;;;;5027720;28;1741;-71
2022/01/12 12:50:47;;;;;;;;;;;21.10;58.00;;;;;;5031834;28;1385;-71
2022/01/12 12:53:12;;;;;;;;;;;21.10;58.10;;;;;;5047055;28;1467;-70
2022/01/12 12:55:39;;;;;;;;;;;21.10;58.10;;;;;;5044347;28;1329;-71
2022/01/12 12:58:04;;;;;;;;;;;21.10;58.20;;;;;;5046909;28;1641;-70
2022/01/12 13:00:30;;;;;;;;;;;21.10;58.20;;;;;;5031402;28;1894;-70
2022/01/12 13:02:56;;;;;;;;;;;21.10;58.10;;;;;;5046061;28;1441;-70
2022/01/12 13:05:22;;;;;;;;;;;21.10;58.30;;;;;;5042115;28;1369;-70
2022/01/12 13:07:48;;;;;;;;;;;21.10;54.30;;;;;;5033306;28;1371;-69
2022/01/12 13:10:17;;;;;;;;;;;21.10;53.10;;;;;;5036769;28;1131;-70
2022/01/12 13:12:47;;;;;;;;;;;21.00;51.40;;;;;;5037887;28;1338;-70
2022/01/12 13:15:20;;;;;;;;;;;21.00;50.20;;;;;;5061828;28;1255;-70
2022/01/12 13:17:45;;;;;;;;;;;20.90;49.40;;;;;;5050147;28;1370;-70
2022/01/12 13:22:47;;;;;;;;;;;20.90;48.10;;;;;;5044601;28;1302;-70
2022/01/12 13:25:15;;;;;;;;;;;20.80;47.40;;;;;;5032580;28;1329;-70
2022/01/12 13:27:40;;;;;;;;;;;20.80;47.10;;;;;;5037010;28;1287;-70
2022/01/12 13:30:08;;;;;;;;;;;20.70;47.20;;;;;;5060301;28;1837;-70
2022/01/12 13:32:33;;;;;;;;;;;20.70;47.60;;;;;;5049708;28;928;-70
2022/01/12 13:35:04;;;;;;;;;;;20.70;48.00;;;;;;5037913;28;1125;-70
2022/01/12 13:37:31;;;;;;;;;;;20.70;48.40;;;;;;5048640;28;1340;-69
2022/01/12 13:40:05;;;;;;;;;;;20.70;48.70;;;;;;5039544;28;1957;-70
2022/01/12 13:42:31;;;;;;;;;;;20.70;49.00;;;;;;5053881;28;1179;-70
2022/01/12 13:45:03;;;;;;;;;;;20.70;49.40;;;;;;5039873;28;1066;-69
2022/01/12 13:47:33;;;;;;;;;;;20.70;49.70;;;;;;5034560;28;1354;-69
2022/01/12 13:50:05;;;;;;;;;;;20.60;49.90;;;;;;5037053;28;1378;-69
2022/01/12 13:52:31;;;;;;;;;;;20.60;50.10;;;;;;5046813;28;1270;-69
2022/01/12 13:55:06;;;;;;;;;;;20.60;50.20;;;;;;5054485;28;1385;-69
2022/01/12 13:57:31;;;;;;;;;;;20.60;50.50;;;;;;5055705;28;1387;-70
2022/01/12 13:59:57;;;;;;;;;;;20.60;50.70;;;;;;5055130;28;1898;-69
2022/01/12 14:02:25;;;;;;;;;;;20.60;50.80;;;;;;5053873;28;1363;-69
2022/01/12 14:05:04;;;;;;;;;;;20.60;50.90;;;;;;5045862;28;1598;-69
2022/01/12 14:07:32;;;;;;;;;;;20.60;51.20;;;;;;5082516;22;3648;-71
2022/01/12 14:09:58;;;;;;;;;;;20.60;51.30;;;;;;5071223;28;1345;-72
2022/01/12 14:12:26;;;;;;;;;;;20.60;51.50;;;;;;5064134;28;1699;-72
2022/01/12 14:14:58;;;;;;;;;;;20.60;51.60;;;;;;5073606;28;1460;-72
2022/01/12 14:17:25;;;;;;;;;;;20.60;51.80;;;;;;5069853;28;1658;-72
2022/01/12 14:19:51;;;;;;;;;;;20.60;51.90;;;;;;5051772;28;2022;-72
2022/01/12 14:22:16;;;;;;;;;;;20.60;52.00;;;;;;5049667;28;1336;-71
2022/01/12 14:24:51;;;;;;;;;;;20.60;52.10;;;;;;5048545;28;1493;-72
2022/01/12 14:27:17;;;;;;;;;;;20.60;52.20;;;;;;5043537;28;1666;-72
2022/01/12 14:29:42;;;;;;;;;;;20.60;52.40;;;;;;5046432;28;1657;-71
2022/01/12 14:32:08;;;;;;;;;;;20.60;52.50;;;;;;5051686;28;1575;-71
2022/01/12 14:34:33;;;;;;;;;;;20.60;52.60;;;;;;5052608;28;1481;-71
2022/01/12 14:36:58;;;;;;;;;;;20.60;52.70;;;;;;5052057;28;1640;-74
2022/01/12 14:39:24;;;;;;;;;;;20.60;52.70;;;;;;5048101;28;1906;-73
2022/01/12 14:41:53;;;;;;;;;;;20.60;52.80;;;;;;5063206;28;1581;-75
2022/01/12 14:44:21;;;;;;;;;;;20.60;52.90;;;;;;5039238;28;1722;-73
2022/01/12 14:46:46;;;;;;;;;;;20.60;53.00;;;;;;5062859;28;1701;-73
2022/01/12 14:49:12;;;;;;;;;;;20.60;53.00;;;;;;5044281;28;1219;-75
2022/01/12 14:51:37;;;;;;;;;;;20.50;53.10;;;;;;5044663;28;1323;-74
2022/01/12 14:54:03;;;;;;;;;;;20.50;53.10;;;;;;5040642;28;1557;-72
2022/01/12 14:56:28;;;;;;;;;;;20.50;53.20;;;;;;5044814;28;1232;-72
2022/01/12 14:58:53;;;;;;;;;;;20.50;53.30;;;;;;5045807;28;1959;-73
2022/01/12 15:01:19;;;;;;;;;;;20.50;53.30;;;;;;5059097;28;1538;-74
2022/01/12 15:03:44;;;;;;;;;;;20.50;53.40;;;;;;5053006;28;1579;-74
2022/01/12 15:06:10;;;;;;;;;;;20.50;53.40;;;;;;5053144;28;1684;-73
2022/01/12 15:08:35;;;;;;;;;;;20.50;53.50;;;;;;5053527;28;1277;-74
2022/01/12 15:11:00;;;;;;;;;;;20.50;53.50;;;;;;5048307;28;1281;-75
2022/01/12 15:13:38;;;;;;;;;;;20.50;53.50;;;;;;5052213;28;1377;-73
2022/01/12 15:16:04;;;;;;;;;;;20.40;53.50;;;;;;5051472;28;1285;-73
2022/01/12 15:18:30;;;;;;;;;;;20.40;53.60;;;;;;5051338;28;1212;-73
2022/01/12 15:20:55;;;;;;;;;;;20.40;53.60;;;;;;5051999;28;1910;-73
2022/01/12 15:23:21;;;;;;;;;;;20.40;53.70;;;;;;5051349;28;1590;-73
2022/01/12 15:25:46;;;;;;;;;;;20.40;53.70;;;;;;5052280;28;1186;-73
2022/01/12 15:28:12;;;;;;;;;;;20.40;53.80;;;;;;5052268;28;1395;-74
2022/01/12 15:30:37;;;;;;;;;;;20.40;53.80;;;;;;5050492;28;1315;-75
2022/01/12 15:33:03;;;;;;;;;;;20.40;54.40;;;;;;5051632;28;1306;-74
2022/01/12 15:35:29;;;;;;;;;;;20.40;53.90;;;;;;5051423;28;1281;-74
2022/01/12 15:37:54;;;;;;;;;;;20.40;53.90;;;;;;5052602;28;1309;-74
2022/01/12 15:40:20;;;;;;;;;;;20.40;54.00;;;;;;5051997;28;1898;-74
2022/01/12 15:42:45;;;;;;;;;;;20.40;54.00;;;;;;5052487;28;1321;-74
2022/01/12 15:45:11;;;;;;;;;;;20.40;54.10;;;;;;5031026;28;1377;-73
2022/01/12 15:47:36;;;;;;;;;;;20.30;54.10;;;;;;5052549;28;1279;-74
2022/01/12 15:50:03;;;;;;;;;;;20.30;54.10;;;;;;5051960;28;1084;-72